<?xml version="1.0" encoding="UTF-8" standalone="no" ?>
<gpx xmlns="http://www.topografix.com/GPX/1/1" xmlns:xsi="http://www.w3.org/2001/XMLSchema-instance" xsi:schemaLocation="http://www.topografix.com/GPX/1/1 http://www.topografix.com/GPX/1/1/gpx.xsd" version="1.1" creator="VisuGPX - https://www.visugpx.com">
  <metadata>
    <name>GRANDE CANDELLE</name>
    <desc><![CDATA[Passage délicat au vallon St Marthe]]></desc>
  </metadata>
  <trk>
    <name><![CDATA[GRANDE CANDELLE_3]]></name>
    <trkseg>
      <trkpt lat="43.22719" lon="5.46799">
        <ele>310.3</ele>
        <time>2015-02-11T11:58:22Z</time>
      </trkpt>
      <trkpt lat="43.22719" lon="5.46799">
        <ele>310.3</ele>
        <time>2015-02-11T11:58:23Z</time>
      </trkpt>
      <trkpt lat="43.22736" lon="5.4679">
        <ele>299</ele>
        <time>2015-02-11T12:23:38Z</time>
      </trkpt>
      <trkpt lat="43.22761" lon="5.46757">
        <ele>295.2</ele>
        <time>2015-02-11T12:24:21Z</time>
      </trkpt>
      <trkpt lat="43.22772" lon="5.46739">
        <ele>299.3</ele>
        <time>2015-02-11T12:24:41Z</time>
      </trkpt>
      <trkpt lat="43.22773" lon="5.46738">
        <ele>300</ele>
        <time>2015-02-11T12:24:42Z</time>
      </trkpt>
      <trkpt lat="43.22793" lon="5.46701">
        <ele>299.5</ele>
        <time>2015-02-11T12:25:17Z</time>
      </trkpt>
      <trkpt lat="43.22803" lon="5.46681">
        <ele>297.7</ele>
        <time>2015-02-11T12:25:33Z</time>
      </trkpt>
      <trkpt lat="43.22808" lon="5.46658">
        <ele>298</ele>
        <time>2015-02-11T12:25:51Z</time>
      </trkpt>
      <trkpt lat="43.22808" lon="5.46657">
        <ele>297.7</ele>
        <time>2015-02-11T12:25:52Z</time>
      </trkpt>
      <trkpt lat="43.22814" lon="5.46611">
        <ele>296.8</ele>
        <time>2015-02-11T12:26:25Z</time>
      </trkpt>
      <trkpt lat="43.22821" lon="5.46589">
        <ele>298.8</ele>
        <time>2015-02-11T12:26:43Z</time>
      </trkpt>
      <trkpt lat="43.22829" lon="5.46568">
        <ele>301.2</ele>
        <time>2015-02-11T12:27:04Z</time>
      </trkpt>
      <trkpt lat="43.22829" lon="5.46567">
        <ele>301.2</ele>
        <time>2015-02-11T12:27:05Z</time>
      </trkpt>
      <trkpt lat="43.22848" lon="5.46528">
        <ele>308</ele>
        <time>2015-02-11T12:27:53Z</time>
      </trkpt>
      <trkpt lat="43.22859" lon="5.46509">
        <ele>313.8</ele>
        <time>2015-02-11T12:28:22Z</time>
      </trkpt>
      <trkpt lat="43.2286" lon="5.46509">
        <ele>314</ele>
        <time>2015-02-11T12:28:23Z</time>
      </trkpt>
      <trkpt lat="43.22885" lon="5.46475">
        <ele>320.3</ele>
        <time>2015-02-11T12:29:21Z</time>
      </trkpt>
      <trkpt lat="43.22899" lon="5.46461">
        <ele>323.5</ele>
        <time>2015-02-11T12:29:46Z</time>
      </trkpt>
      <trkpt lat="43.22899" lon="5.4646">
        <ele>323.6</ele>
        <time>2015-02-11T12:29:47Z</time>
      </trkpt>
      <trkpt lat="43.22929" lon="5.46435">
        <ele>330.1</ele>
        <time>2015-02-11T12:30:34Z</time>
      </trkpt>
      <trkpt lat="43.22945" lon="5.46426">
        <ele>334.1</ele>
        <time>2015-02-11T12:30:55Z</time>
      </trkpt>
      <trkpt lat="43.22946" lon="5.46426">
        <ele>334.2</ele>
        <time>2015-02-11T12:30:56Z</time>
      </trkpt>
      <trkpt lat="43.22972" lon="5.46396">
        <ele>338.1</ele>
        <time>2015-02-11T12:31:39Z</time>
      </trkpt>
      <trkpt lat="43.22984" lon="5.46379">
        <ele>340.5</ele>
        <time>2015-02-11T12:32:01Z</time>
      </trkpt>
      <trkpt lat="43.22985" lon="5.46379">
        <ele>340.7</ele>
        <time>2015-02-11T12:32:02Z</time>
      </trkpt>
      <trkpt lat="43.23007" lon="5.46343">
        <ele>345.2</ele>
        <time>2015-02-11T12:32:42Z</time>
      </trkpt>
      <trkpt lat="43.23013" lon="5.4632">
        <ele>349.7</ele>
        <time>2015-02-11T12:33:02Z</time>
      </trkpt>
      <trkpt lat="43.23014" lon="5.4632">
        <ele>349.8</ele>
        <time>2015-02-11T12:33:03Z</time>
      </trkpt>
      <trkpt lat="43.23022" lon="5.46274">
        <ele>354</ele>
        <time>2015-02-11T12:33:48Z</time>
      </trkpt>
      <trkpt lat="43.23022" lon="5.46249">
        <ele>357.2</ele>
        <time>2015-02-11T12:34:13Z</time>
      </trkpt>
      <trkpt lat="43.23022" lon="5.46248">
        <ele>357.6</ele>
        <time>2015-02-11T12:34:14Z</time>
      </trkpt>
      <trkpt lat="43.23023" lon="5.46201">
        <ele>365.7</ele>
        <time>2015-02-11T12:34:59Z</time>
      </trkpt>
      <trkpt lat="43.23021" lon="5.46176">
        <ele>368.2</ele>
        <time>2015-02-11T12:35:19Z</time>
      </trkpt>
      <trkpt lat="43.23021" lon="5.46175">
        <ele>368.2</ele>
        <time>2015-02-11T12:35:20Z</time>
      </trkpt>
      <trkpt lat="43.23005" lon="5.46134">
        <ele>370.1</ele>
        <time>2015-02-11T12:35:59Z</time>
      </trkpt>
      <trkpt lat="43.22996" lon="5.46114">
        <ele>370.7</ele>
        <time>2015-02-11T12:36:19Z</time>
      </trkpt>
      <trkpt lat="43.22988" lon="5.46092">
        <ele>371.7</ele>
        <time>2015-02-11T12:36:40Z</time>
      </trkpt>
      <trkpt lat="43.22987" lon="5.46091">
        <ele>372.1</ele>
        <time>2015-02-11T12:36:41Z</time>
      </trkpt>
      <trkpt lat="43.22976" lon="5.46046">
        <ele>374.7</ele>
        <time>2015-02-11T12:37:20Z</time>
      </trkpt>
      <trkpt lat="43.22971" lon="5.46023">
        <ele>375.7</ele>
        <time>2015-02-11T12:37:39Z</time>
      </trkpt>
      <trkpt lat="43.2296" lon="5.46003">
        <ele>378</ele>
        <time>2015-02-11T12:38:00Z</time>
      </trkpt>
      <trkpt lat="43.2296" lon="5.46003">
        <ele>378.2</ele>
        <time>2015-02-11T12:38:01Z</time>
      </trkpt>
      <trkpt lat="43.22935" lon="5.45972">
        <ele>381.6</ele>
        <time>2015-02-11T12:38:31Z</time>
      </trkpt>
      <trkpt lat="43.22922" lon="5.45957">
        <ele>383.2</ele>
        <time>2015-02-11T12:38:46Z</time>
      </trkpt>
      <trkpt lat="43.22907" lon="5.45944">
        <ele>385</ele>
        <time>2015-02-11T12:39:02Z</time>
      </trkpt>
      <trkpt lat="43.22906" lon="5.45942">
        <ele>386</ele>
        <time>2015-02-11T12:39:03Z</time>
      </trkpt>
      <trkpt lat="43.22911" lon="5.45899">
        <ele>380.2</ele>
        <time>2015-02-11T12:39:37Z</time>
      </trkpt>
      <trkpt lat="43.22922" lon="5.45881">
        <ele>379.1</ele>
        <time>2015-02-11T12:39:52Z</time>
      </trkpt>
      <trkpt lat="43.22931" lon="5.45861">
        <ele>379.7</ele>
        <time>2015-02-11T12:40:07Z</time>
      </trkpt>
      <trkpt lat="43.22932" lon="5.4586">
        <ele>379.7</ele>
        <time>2015-02-11T12:40:08Z</time>
      </trkpt>
      <trkpt lat="43.22923" lon="5.45817">
        <ele>381.6</ele>
        <time>2015-02-11T12:40:40Z</time>
      </trkpt>
      <trkpt lat="43.2291" lon="5.45802">
        <ele>381</ele>
        <time>2015-02-11T12:40:56Z</time>
      </trkpt>
      <trkpt lat="43.22904" lon="5.45779">
        <ele>383</ele>
        <time>2015-02-11T12:41:13Z</time>
      </trkpt>
      <trkpt lat="43.22904" lon="5.45777">
        <ele>382.8</ele>
        <time>2015-02-11T12:41:14Z</time>
      </trkpt>
      <trkpt lat="43.22891" lon="5.45734">
        <ele>386.7</ele>
        <time>2015-02-11T12:41:45Z</time>
      </trkpt>
      <trkpt lat="43.22887" lon="5.45711">
        <ele>388.8</ele>
        <time>2015-02-11T12:42:03Z</time>
      </trkpt>
      <trkpt lat="43.22882" lon="5.45688">
        <ele>390.6</ele>
        <time>2015-02-11T12:42:19Z</time>
      </trkpt>
      <trkpt lat="43.22882" lon="5.45687">
        <ele>390.3</ele>
        <time>2015-02-11T12:42:20Z</time>
      </trkpt>
      <trkpt lat="43.22883" lon="5.45641">
        <ele>391.5</ele>
        <time>2015-02-11T12:42:54Z</time>
      </trkpt>
      <trkpt lat="43.22874" lon="5.4562">
        <ele>390.6</ele>
        <time>2015-02-11T12:43:10Z</time>
      </trkpt>
      <trkpt lat="43.22865" lon="5.456">
        <ele>389.2</ele>
        <time>2015-02-11T12:43:26Z</time>
      </trkpt>
      <trkpt lat="43.22865" lon="5.45598">
        <ele>389.2</ele>
        <time>2015-02-11T12:43:27Z</time>
      </trkpt>
      <trkpt lat="43.22853" lon="5.45555">
        <ele>392.3</ele>
        <time>2015-02-11T12:44:00Z</time>
      </trkpt>
      <trkpt lat="43.22841" lon="5.45537">
        <ele>391</ele>
        <time>2015-02-11T12:44:15Z</time>
      </trkpt>
      <trkpt lat="43.22828" lon="5.45522">
        <ele>389</ele>
        <time>2015-02-11T12:44:31Z</time>
      </trkpt>
      <trkpt lat="43.22827" lon="5.45521">
        <ele>388.8</ele>
        <time>2015-02-11T12:44:32Z</time>
      </trkpt>
      <trkpt lat="43.22799" lon="5.45496">
        <ele>389.7</ele>
        <time>2015-02-11T12:45:01Z</time>
      </trkpt>
      <trkpt lat="43.22782" lon="5.45491">
        <ele>389.8</ele>
        <time>2015-02-11T12:45:17Z</time>
      </trkpt>
      <trkpt lat="43.22764" lon="5.45496">
        <ele>387.7</ele>
        <time>2015-02-11T12:45:34Z</time>
      </trkpt>
      <trkpt lat="43.22763" lon="5.45497">
        <ele>387.5</ele>
        <time>2015-02-11T12:45:35Z</time>
      </trkpt>
      <trkpt lat="43.22733" lon="5.45517">
        <ele>382.2</ele>
        <time>2015-02-11T12:46:06Z</time>
      </trkpt>
      <trkpt lat="43.22717" lon="5.45505">
        <ele>379.8</ele>
        <time>2015-02-11T12:46:24Z</time>
      </trkpt>
      <trkpt lat="43.22714" lon="5.45481">
        <ele>380</ele>
        <time>2015-02-11T12:46:39Z</time>
      </trkpt>
      <trkpt lat="43.22714" lon="5.4548">
        <ele>380.2</ele>
        <time>2015-02-11T12:46:40Z</time>
      </trkpt>
      <trkpt lat="43.22695" lon="5.45444">
        <ele>380.5</ele>
        <time>2015-02-11T12:47:09Z</time>
      </trkpt>
      <trkpt lat="43.22677" lon="5.45441">
        <ele>378.7</ele>
        <time>2015-02-11T12:47:24Z</time>
      </trkpt>
      <trkpt lat="43.2266" lon="5.45442">
        <ele>377.8</ele>
        <time>2015-02-11T12:47:38Z</time>
      </trkpt>
      <trkpt lat="43.22643" lon="5.45437">
        <ele>376.1</ele>
        <time>2015-02-11T12:47:53Z</time>
      </trkpt>
      <trkpt lat="43.22642" lon="5.45436">
        <ele>376.1</ele>
        <time>2015-02-11T12:47:54Z</time>
      </trkpt>
      <trkpt lat="43.22613" lon="5.45412">
        <ele>375.3</ele>
        <time>2015-02-11T12:48:23Z</time>
      </trkpt>
      <trkpt lat="43.22597" lon="5.45403">
        <ele>380.7</ele>
        <time>2015-02-11T12:48:37Z</time>
      </trkpt>
      <trkpt lat="43.22583" lon="5.45389">
        <ele>383.7</ele>
        <time>2015-02-11T12:48:49Z</time>
      </trkpt>
      <trkpt lat="43.22574" lon="5.45369">
        <ele>380.6</ele>
        <time>2015-02-11T12:49:06Z</time>
      </trkpt>
      <trkpt lat="43.22574" lon="5.45368">
        <ele>380.3</ele>
        <time>2015-02-11T12:49:07Z</time>
      </trkpt>
      <trkpt lat="43.22558" lon="5.45326">
        <ele>377.7</ele>
        <time>2015-02-11T12:49:37Z</time>
      </trkpt>
      <trkpt lat="43.22556" lon="5.45302">
        <ele>376</ele>
        <time>2015-02-11T12:49:53Z</time>
      </trkpt>
      <trkpt lat="43.22557" lon="5.45279">
        <ele>377</ele>
        <time>2015-02-11T12:50:08Z</time>
      </trkpt>
      <trkpt lat="43.22558" lon="5.45278">
        <ele>377</ele>
        <time>2015-02-11T12:50:09Z</time>
      </trkpt>
      <trkpt lat="43.22568" lon="5.45234">
        <ele>380.3</ele>
        <time>2015-02-11T12:50:40Z</time>
      </trkpt>
      <trkpt lat="43.22563" lon="5.45212">
        <ele>380.7</ele>
        <time>2015-02-11T12:50:55Z</time>
      </trkpt>
      <trkpt lat="43.22552" lon="5.45194">
        <ele>378.6</ele>
        <time>2015-02-11T12:51:10Z</time>
      </trkpt>
      <trkpt lat="43.22551" lon="5.45193">
        <ele>378.3</ele>
        <time>2015-02-11T12:51:11Z</time>
      </trkpt>
      <trkpt lat="43.22525" lon="5.45165">
        <ele>378.5</ele>
        <time>2015-02-11T12:51:40Z</time>
      </trkpt>
      <trkpt lat="43.22509" lon="5.4516">
        <ele>376.5</ele>
        <time>2015-02-11T12:51:55Z</time>
      </trkpt>
      <trkpt lat="43.22491" lon="5.45156">
        <ele>375.2</ele>
        <time>2015-02-11T12:52:11Z</time>
      </trkpt>
      <trkpt lat="43.2249" lon="5.45155">
        <ele>375.1</ele>
        <time>2015-02-11T12:52:12Z</time>
      </trkpt>
      <trkpt lat="43.22457" lon="5.45155">
        <ele>373.3</ele>
        <time>2015-02-11T12:52:41Z</time>
      </trkpt>
      <trkpt lat="43.2244" lon="5.4515">
        <ele>372.1</ele>
        <time>2015-02-11T12:52:57Z</time>
      </trkpt>
      <trkpt lat="43.22427" lon="5.45134">
        <ele>370.3</ele>
        <time>2015-02-11T12:53:12Z</time>
      </trkpt>
      <trkpt lat="43.22426" lon="5.45133">
        <ele>370.2</ele>
        <time>2015-02-11T12:53:13Z</time>
      </trkpt>
      <trkpt lat="43.22402" lon="5.45101">
        <ele>368.5</ele>
        <time>2015-02-11T12:53:42Z</time>
      </trkpt>
      <trkpt lat="43.22389" lon="5.45084">
        <ele>365.7</ele>
        <time>2015-02-11T12:53:58Z</time>
      </trkpt>
      <trkpt lat="43.22373" lon="5.45075">
        <ele>363.7</ele>
        <time>2015-02-11T12:54:13Z</time>
      </trkpt>
      <trkpt lat="43.22372" lon="5.45074">
        <ele>363.7</ele>
        <time>2015-02-11T12:54:14Z</time>
      </trkpt>
      <trkpt lat="43.22339" lon="5.45078">
        <ele>361.7</ele>
        <time>2015-02-11T12:54:43Z</time>
      </trkpt>
      <trkpt lat="43.22321" lon="5.45081">
        <ele>360.5</ele>
        <time>2015-02-11T12:54:58Z</time>
      </trkpt>
      <trkpt lat="43.22304" lon="5.45083">
        <ele>358.3</ele>
        <time>2015-02-11T12:55:13Z</time>
      </trkpt>
      <trkpt lat="43.22286" lon="5.45083">
        <ele>357.3</ele>
        <time>2015-02-11T12:55:27Z</time>
      </trkpt>
      <trkpt lat="43.22285" lon="5.45083">
        <ele>357.2</ele>
        <time>2015-02-11T12:55:28Z</time>
      </trkpt>
      <trkpt lat="43.22252" lon="5.45091">
        <ele>354.1</ele>
        <time>2015-02-11T12:55:55Z</time>
      </trkpt>
      <trkpt lat="43.22235" lon="5.45097">
        <ele>352.1</ele>
        <time>2015-02-11T12:56:09Z</time>
      </trkpt>
      <trkpt lat="43.22217" lon="5.45094">
        <ele>351.3</ele>
        <time>2015-02-11T12:56:24Z</time>
      </trkpt>
      <trkpt lat="43.222" lon="5.4509">
        <ele>350.8</ele>
        <time>2015-02-11T12:56:38Z</time>
      </trkpt>
      <trkpt lat="43.22199" lon="5.4509">
        <ele>350.8</ele>
        <time>2015-02-11T12:56:39Z</time>
      </trkpt>
      <trkpt lat="43.22165" lon="5.45086">
        <ele>349.7</ele>
        <time>2015-02-11T12:57:07Z</time>
      </trkpt>
      <trkpt lat="43.22148" lon="5.45084">
        <ele>348.1</ele>
        <time>2015-02-11T12:57:22Z</time>
      </trkpt>
      <trkpt lat="43.22131" lon="5.45085">
        <ele>346.5</ele>
        <time>2015-02-11T12:57:37Z</time>
      </trkpt>
      <trkpt lat="43.22113" lon="5.4509">
        <ele>344.3</ele>
        <time>2015-02-11T12:57:52Z</time>
      </trkpt>
      <trkpt lat="43.22112" lon="5.4509">
        <ele>344.2</ele>
        <time>2015-02-11T12:57:53Z</time>
      </trkpt>
      <trkpt lat="43.22082" lon="5.45109">
        <ele>340.1</ele>
        <time>2015-02-11T12:58:21Z</time>
      </trkpt>
      <trkpt lat="43.22066" lon="5.45117">
        <ele>338.5</ele>
        <time>2015-02-11T12:58:35Z</time>
      </trkpt>
      <trkpt lat="43.22049" lon="5.45123">
        <ele>336.7</ele>
        <time>2015-02-11T12:58:50Z</time>
      </trkpt>
      <trkpt lat="43.22032" lon="5.4513">
        <ele>332.8</ele>
        <time>2015-02-11T12:59:06Z</time>
      </trkpt>
      <trkpt lat="43.22031" lon="5.4513">
        <ele>332.7</ele>
        <time>2015-02-11T12:59:07Z</time>
      </trkpt>
      <trkpt lat="43.21999" lon="5.45144">
        <ele>327.6</ele>
        <time>2015-02-11T12:59:36Z</time>
      </trkpt>
      <trkpt lat="43.21982" lon="5.45152">
        <ele>325.1</ele>
        <time>2015-02-11T12:59:52Z</time>
      </trkpt>
      <trkpt lat="43.21967" lon="5.45161">
        <ele>321.7</ele>
        <time>2015-02-11T13:00:08Z</time>
      </trkpt>
      <trkpt lat="43.21966" lon="5.45161">
        <ele>321.7</ele>
        <time>2015-02-11T13:00:09Z</time>
      </trkpt>
      <trkpt lat="43.21936" lon="5.45183">
        <ele>315</ele>
        <time>2015-02-11T13:00:40Z</time>
      </trkpt>
      <trkpt lat="43.2192" lon="5.45188">
        <ele>313.2</ele>
        <time>2015-02-11T13:00:54Z</time>
      </trkpt>
      <trkpt lat="43.21904" lon="5.45198">
        <ele>312.2</ele>
        <time>2015-02-11T13:01:08Z</time>
      </trkpt>
      <trkpt lat="43.21888" lon="5.45208">
        <ele>311.3</ele>
        <time>2015-02-11T13:01:23Z</time>
      </trkpt>
      <trkpt lat="43.21887" lon="5.45208">
        <ele>311.3</ele>
        <time>2015-02-11T13:01:24Z</time>
      </trkpt>
      <trkpt lat="43.21864" lon="5.45181">
        <ele>311.2</ele>
        <time>2015-02-11T13:01:56Z</time>
      </trkpt>
      <trkpt lat="43.21874" lon="5.45161">
        <ele>305.7</ele>
        <time>2015-02-11T13:06:01Z</time>
      </trkpt>
      <trkpt lat="43.21874" lon="5.4516">
        <ele>305.7</ele>
        <time>2015-02-11T13:06:02Z</time>
      </trkpt>
      <trkpt lat="43.21892" lon="5.45119">
        <ele>300.2</ele>
        <time>2015-02-11T13:06:42Z</time>
      </trkpt>
      <trkpt lat="43.21907" lon="5.45107">
        <ele>296.3</ele>
        <time>2015-02-11T13:07:01Z</time>
      </trkpt>
      <trkpt lat="43.21921" lon="5.45094">
        <ele>294.7</ele>
        <time>2015-02-11T13:07:18Z</time>
      </trkpt>
      <trkpt lat="43.21922" lon="5.45093">
        <ele>294.6</ele>
        <time>2015-02-11T13:07:19Z</time>
      </trkpt>
      <trkpt lat="43.21942" lon="5.45056">
        <ele>291.1</ele>
        <time>2015-02-11T13:07:52Z</time>
      </trkpt>
      <trkpt lat="43.21944" lon="5.45032">
        <ele>292</ele>
        <time>2015-02-11T13:08:08Z</time>
      </trkpt>
      <trkpt lat="43.2194" lon="5.45009">
        <ele>289.3</ele>
        <time>2015-02-11T13:08:24Z</time>
      </trkpt>
      <trkpt lat="43.21939" lon="5.45008">
        <ele>289.2</ele>
        <time>2015-02-11T13:08:25Z</time>
      </trkpt>
      <trkpt lat="43.21955" lon="5.44974">
        <ele>286.7</ele>
        <time>2015-02-11T13:08:57Z</time>
      </trkpt>
      <trkpt lat="43.21972" lon="5.44974">
        <ele>283</ele>
        <time>2015-02-11T13:09:12Z</time>
      </trkpt>
      <trkpt lat="43.21984" lon="5.44956">
        <ele>279.1</ele>
        <time>2015-02-11T13:09:28Z</time>
      </trkpt>
      <trkpt lat="43.21984" lon="5.44954">
        <ele>278.7</ele>
        <time>2015-02-11T13:09:29Z</time>
      </trkpt>
      <trkpt lat="43.22001" lon="5.44917">
        <ele>276.7</ele>
        <time>2015-02-11T13:10:02Z</time>
      </trkpt>
      <trkpt lat="43.22019" lon="5.44918">
        <ele>276.7</ele>
        <time>2015-02-11T13:10:17Z</time>
      </trkpt>
      <trkpt lat="43.22036" lon="5.44922">
        <ele>273.8</ele>
        <time>2015-02-11T13:10:32Z</time>
      </trkpt>
      <trkpt lat="43.22037" lon="5.44923">
        <ele>273.3</ele>
        <time>2015-02-11T13:10:33Z</time>
      </trkpt>
      <trkpt lat="43.22069" lon="5.44915">
        <ele>267</ele>
        <time>2015-02-11T13:11:05Z</time>
      </trkpt>
      <trkpt lat="43.22084" lon="5.44902">
        <ele>263.7</ele>
        <time>2015-02-11T13:11:21Z</time>
      </trkpt>
      <trkpt lat="43.22099" lon="5.44889">
        <ele>262.3</ele>
        <time>2015-02-11T13:11:37Z</time>
      </trkpt>
      <trkpt lat="43.221" lon="5.44888">
        <ele>262.2</ele>
        <time>2015-02-11T13:11:38Z</time>
      </trkpt>
      <trkpt lat="43.22132" lon="5.44878">
        <ele>260.6</ele>
        <time>2015-02-11T13:12:04Z</time>
      </trkpt>
      <trkpt lat="43.2215" lon="5.44883">
        <ele>262.6</ele>
        <time>2015-02-11T13:12:21Z</time>
      </trkpt>
      <trkpt lat="43.22167" lon="5.44886">
        <ele>255.1</ele>
        <time>2015-02-11T13:12:38Z</time>
      </trkpt>
      <trkpt lat="43.22168" lon="5.44885">
        <ele>255</ele>
        <time>2015-02-11T13:12:39Z</time>
      </trkpt>
      <trkpt lat="43.22181" lon="5.44842">
        <ele>254.5</ele>
        <time>2015-02-11T13:13:11Z</time>
      </trkpt>
      <trkpt lat="43.22188" lon="5.4482">
        <ele>251.8</ele>
        <time>2015-02-11T13:13:29Z</time>
      </trkpt>
      <trkpt lat="43.2219" lon="5.44796">
        <ele>249.8</ele>
        <time>2015-02-11T13:13:53Z</time>
      </trkpt>
      <trkpt lat="43.2219" lon="5.44795">
        <ele>249.6</ele>
        <time>2015-02-11T13:13:54Z</time>
      </trkpt>
      <trkpt lat="43.22186" lon="5.44748">
        <ele>246.3</ele>
        <time>2015-02-11T13:14:31Z</time>
      </trkpt>
      <trkpt lat="43.22172" lon="5.44733">
        <ele>244.8</ele>
        <time>2015-02-11T13:14:47Z</time>
      </trkpt>
      <trkpt lat="43.22154" lon="5.44734">
        <ele>244.1</ele>
        <time>2015-02-11T13:15:02Z</time>
      </trkpt>
      <trkpt lat="43.22153" lon="5.44735">
        <ele>243.8</ele>
        <time>2015-02-11T13:15:03Z</time>
      </trkpt>
      <trkpt lat="43.22129" lon="5.44765">
        <ele>239.1</ele>
        <time>2015-02-11T13:15:32Z</time>
      </trkpt>
      <trkpt lat="43.22113" lon="5.44775">
        <ele>237.8</ele>
        <time>2015-02-11T13:15:49Z</time>
      </trkpt>
      <trkpt lat="43.22095" lon="5.44778">
        <ele>237.8</ele>
        <time>2015-02-11T13:16:04Z</time>
      </trkpt>
      <trkpt lat="43.22094" lon="5.44778">
        <ele>237.8</ele>
        <time>2015-02-11T13:16:05Z</time>
      </trkpt>
      <trkpt lat="43.22061" lon="5.44793">
        <ele>236.1</ele>
        <time>2015-02-11T13:16:35Z</time>
      </trkpt>
      <trkpt lat="43.22046" lon="5.44804">
        <ele>235</ele>
        <time>2015-02-11T13:16:51Z</time>
      </trkpt>
      <trkpt lat="43.22028" lon="5.44802">
        <ele>235.1</ele>
        <time>2015-02-11T13:17:08Z</time>
      </trkpt>
      <trkpt lat="43.22027" lon="5.44801">
        <ele>235.1</ele>
        <time>2015-02-11T13:17:09Z</time>
      </trkpt>
      <trkpt lat="43.21996" lon="5.44781">
        <ele>234</ele>
        <time>2015-02-11T13:17:37Z</time>
      </trkpt>
      <trkpt lat="43.21981" lon="5.44769">
        <ele>231.6</ele>
        <time>2015-02-11T13:17:54Z</time>
      </trkpt>
      <trkpt lat="43.21967" lon="5.44756">
        <ele>229.5</ele>
        <time>2015-02-11T13:18:10Z</time>
      </trkpt>
      <trkpt lat="43.21966" lon="5.44756">
        <ele>229.3</ele>
        <time>2015-02-11T13:18:11Z</time>
      </trkpt>
      <trkpt lat="43.21935" lon="5.44737">
        <ele>225.6</ele>
        <time>2015-02-11T13:18:40Z</time>
      </trkpt>
      <trkpt lat="43.21918" lon="5.44731">
        <ele>223.3</ele>
        <time>2015-02-11T13:18:55Z</time>
      </trkpt>
      <trkpt lat="43.21901" lon="5.44726">
        <ele>221.8</ele>
        <time>2015-02-11T13:19:10Z</time>
      </trkpt>
      <trkpt lat="43.21884" lon="5.44726">
        <ele>217.1</ele>
        <time>2015-02-11T13:20:27Z</time>
      </trkpt>
      <trkpt lat="43.21883" lon="5.44726">
        <ele>217.1</ele>
        <time>2015-02-11T13:20:28Z</time>
      </trkpt>
      <trkpt lat="43.21851" lon="5.44711">
        <ele>214.1</ele>
        <time>2015-02-11T13:21:05Z</time>
      </trkpt>
      <trkpt lat="43.21835" lon="5.44701">
        <ele>216.1</ele>
        <time>2015-02-11T13:21:20Z</time>
      </trkpt>
      <trkpt lat="43.21818" lon="5.44693">
        <ele>217.1</ele>
        <time>2015-02-11T13:21:37Z</time>
      </trkpt>
      <trkpt lat="43.21817" lon="5.44692">
        <ele>217.6</ele>
        <time>2015-02-11T13:21:38Z</time>
      </trkpt>
      <trkpt lat="43.21785" lon="5.44681">
        <ele>218.3</ele>
        <time>2015-02-11T13:22:14Z</time>
      </trkpt>
      <trkpt lat="43.21769" lon="5.44672">
        <ele>219.1</ele>
        <time>2015-02-11T13:22:34Z</time>
      </trkpt>
      <trkpt lat="43.21753" lon="5.44666">
        <ele>219.3</ele>
        <time>2015-02-11T13:22:49Z</time>
      </trkpt>
      <trkpt lat="43.21751" lon="5.44665">
        <ele>219.5</ele>
        <time>2015-02-11T13:22:50Z</time>
      </trkpt>
      <trkpt lat="43.21724" lon="5.44639">
        <ele>219.5</ele>
        <time>2015-02-11T13:23:20Z</time>
      </trkpt>
      <trkpt lat="43.21713" lon="5.4462">
        <ele>219</ele>
        <time>2015-02-11T13:23:35Z</time>
      </trkpt>
      <trkpt lat="43.21702" lon="5.44601">
        <ele>220.8</ele>
        <time>2015-02-11T13:23:53Z</time>
      </trkpt>
      <trkpt lat="43.21702" lon="5.44599">
        <ele>220.8</ele>
        <time>2015-02-11T13:23:54Z</time>
      </trkpt>
      <trkpt lat="43.21686" lon="5.44559">
        <ele>223.3</ele>
        <time>2015-02-11T13:24:24Z</time>
      </trkpt>
      <trkpt lat="43.21678" lon="5.44538">
        <ele>227.1</ele>
        <time>2015-02-11T13:24:38Z</time>
      </trkpt>
      <trkpt lat="43.21668" lon="5.44518">
        <ele>227.3</ele>
        <time>2015-02-11T13:24:53Z</time>
      </trkpt>
      <trkpt lat="43.21651" lon="5.44511">
        <ele>226</ele>
        <time>2015-02-11T13:25:09Z</time>
      </trkpt>
      <trkpt lat="43.2165" lon="5.44511">
        <ele>226.1</ele>
        <time>2015-02-11T13:25:10Z</time>
      </trkpt>
      <trkpt lat="43.21617" lon="5.44517">
        <ele>224.6</ele>
        <time>2015-02-11T13:25:38Z</time>
      </trkpt>
      <trkpt lat="43.21602" lon="5.44529">
        <ele>224.8</ele>
        <time>2015-02-11T13:25:52Z</time>
      </trkpt>
      <trkpt lat="43.21588" lon="5.44543">
        <ele>224.3</ele>
        <time>2015-02-11T13:26:06Z</time>
      </trkpt>
      <trkpt lat="43.21575" lon="5.44557">
        <ele>223.5</ele>
        <time>2015-02-11T13:26:21Z</time>
      </trkpt>
      <trkpt lat="43.21574" lon="5.44558">
        <ele>223.5</ele>
        <time>2015-02-11T13:26:22Z</time>
      </trkpt>
      <trkpt lat="43.21549" lon="5.4459">
        <ele>223.3</ele>
        <time>2015-02-11T13:26:52Z</time>
      </trkpt>
      <trkpt lat="43.21535" lon="5.44606">
        <ele>224</ele>
        <time>2015-02-11T13:27:08Z</time>
      </trkpt>
      <trkpt lat="43.21523" lon="5.44623">
        <ele>224.8</ele>
        <time>2015-02-11T13:27:30Z</time>
      </trkpt>
      <trkpt lat="43.21523" lon="5.44624">
        <ele>224.8</ele>
        <time>2015-02-11T13:27:31Z</time>
      </trkpt>
      <trkpt lat="43.21493" lon="5.4465">
        <ele>224.3</ele>
        <time>2015-02-11T13:28:05Z</time>
      </trkpt>
      <trkpt lat="43.21483" lon="5.44669">
        <ele>222.3</ele>
        <time>2015-02-11T13:28:58Z</time>
      </trkpt>
      <trkpt lat="43.21482" lon="5.4467">
        <ele>222.3</ele>
        <time>2015-02-11T13:28:59Z</time>
      </trkpt>
      <trkpt lat="43.21464" lon="5.44708">
        <ele>223.6</ele>
        <time>2015-02-11T13:29:30Z</time>
      </trkpt>
      <trkpt lat="43.21458" lon="5.44731">
        <ele>222.8</ele>
        <time>2015-02-11T13:29:47Z</time>
      </trkpt>
      <trkpt lat="43.21452" lon="5.44754">
        <ele>221.6</ele>
        <time>2015-02-11T13:30:05Z</time>
      </trkpt>
      <trkpt lat="43.21451" lon="5.44755">
        <ele>221.6</ele>
        <time>2015-02-11T13:30:06Z</time>
      </trkpt>
      <trkpt lat="43.21425" lon="5.44779">
        <ele>229.6</ele>
        <time>2015-02-11T13:30:39Z</time>
      </trkpt>
      <trkpt lat="43.21407" lon="5.44782">
        <ele>231.3</ele>
        <time>2015-02-11T13:31:04Z</time>
      </trkpt>
      <trkpt lat="43.21393" lon="5.44795">
        <ele>233.1</ele>
        <time>2015-02-11T13:31:59Z</time>
      </trkpt>
      <trkpt lat="43.21392" lon="5.44796">
        <ele>233.1</ele>
        <time>2015-02-11T13:32:00Z</time>
      </trkpt>
      <trkpt lat="43.21394" lon="5.4477">
        <ele>247.3</ele>
        <time>2015-02-11T13:33:52Z</time>
      </trkpt>
      <trkpt lat="43.21406" lon="5.44788">
        <ele>233.6</ele>
        <time>2015-02-11T13:39:56Z</time>
      </trkpt>
      <trkpt lat="43.21436" lon="5.44764">
        <ele>230.1</ele>
        <time>2015-02-11T13:41:55Z</time>
      </trkpt>
      <trkpt lat="43.21438" lon="5.44761">
        <ele>229.6</ele>
        <time>2015-02-11T13:41:56Z</time>
      </trkpt>
      <trkpt lat="43.21467" lon="5.44744">
        <ele>229</ele>
        <time>2015-02-11T13:42:12Z</time>
      </trkpt>
      <trkpt lat="43.2147" lon="5.44742">
        <ele>228.8</ele>
        <time>2015-02-11T13:42:14Z</time>
      </trkpt>
      <trkpt lat="43.21427" lon="5.44773">
        <ele>228.6</ele>
        <time>2015-02-11T13:42:15Z</time>
      </trkpt>
      <trkpt lat="43.21445" lon="5.44773">
        <ele>228.1</ele>
        <time>2015-02-11T13:42:58Z</time>
      </trkpt>
      <trkpt lat="43.21445" lon="5.44772">
        <ele>228.1</ele>
        <time>2015-02-11T13:42:59Z</time>
      </trkpt>
      <trkpt lat="43.21458" lon="5.44728">
        <ele>226.5</ele>
        <time>2015-02-11T13:43:38Z</time>
      </trkpt>
      <trkpt lat="43.21462" lon="5.44705">
        <ele>227.3</ele>
        <time>2015-02-11T13:43:54Z</time>
      </trkpt>
      <trkpt lat="43.21471" lon="5.44683">
        <ele>226.8</ele>
        <time>2015-02-11T13:44:09Z</time>
      </trkpt>
      <trkpt lat="43.21471" lon="5.44682">
        <ele>226.8</ele>
        <time>2015-02-11T13:44:10Z</time>
      </trkpt>
      <trkpt lat="43.21496" lon="5.4465">
        <ele>225.1</ele>
        <time>2015-02-11T13:44:39Z</time>
      </trkpt>
      <trkpt lat="43.2151" lon="5.44636">
        <ele>223.3</ele>
        <time>2015-02-11T13:44:52Z</time>
      </trkpt>
      <trkpt lat="43.21523" lon="5.44621">
        <ele>223.3</ele>
        <time>2015-02-11T13:45:06Z</time>
      </trkpt>
      <trkpt lat="43.21536" lon="5.44604">
        <ele>223.6</ele>
        <time>2015-02-11T13:45:20Z</time>
      </trkpt>
      <trkpt lat="43.21537" lon="5.44603">
        <ele>223.5</ele>
        <time>2015-02-11T13:45:21Z</time>
      </trkpt>
      <trkpt lat="43.21561" lon="5.4457">
        <ele>222.8</ele>
        <time>2015-02-11T13:45:49Z</time>
      </trkpt>
      <trkpt lat="43.21573" lon="5.44554">
        <ele>221.8</ele>
        <time>2015-02-11T13:46:01Z</time>
      </trkpt>
      <trkpt lat="43.21588" lon="5.44543">
        <ele>221.8</ele>
        <time>2015-02-11T13:46:14Z</time>
      </trkpt>
      <trkpt lat="43.21603" lon="5.44529">
        <ele>222.1</ele>
        <time>2015-02-11T13:46:30Z</time>
      </trkpt>
      <trkpt lat="43.21604" lon="5.44529">
        <ele>222.3</ele>
        <time>2015-02-11T13:46:31Z</time>
      </trkpt>
      <trkpt lat="43.21633" lon="5.44511">
        <ele>225.1</ele>
        <time>2015-02-11T13:46:58Z</time>
      </trkpt>
      <trkpt lat="43.2165" lon="5.44511">
        <ele>226.1</ele>
        <time>2015-02-11T13:47:12Z</time>
      </trkpt>
      <trkpt lat="43.21667" lon="5.44517">
        <ele>227.5</ele>
        <time>2015-02-11T13:47:28Z</time>
      </trkpt>
      <trkpt lat="43.2168" lon="5.44532">
        <ele>222.6</ele>
        <time>2015-02-11T13:47:44Z</time>
      </trkpt>
      <trkpt lat="43.21681" lon="5.44534">
        <ele>222.3</ele>
        <time>2015-02-11T13:47:45Z</time>
      </trkpt>
      <trkpt lat="43.21699" lon="5.44572">
        <ele>214.3</ele>
        <time>2015-02-11T13:48:16Z</time>
      </trkpt>
      <trkpt lat="43.21711" lon="5.4459">
        <ele>207.3</ele>
        <time>2015-02-11T13:48:33Z</time>
      </trkpt>
      <trkpt lat="43.21723" lon="5.44607">
        <ele>203.5</ele>
        <time>2015-02-11T13:48:48Z</time>
      </trkpt>
      <trkpt lat="43.21724" lon="5.44608">
        <ele>203.3</ele>
        <time>2015-02-11T13:48:49Z</time>
      </trkpt>
      <trkpt lat="43.21749" lon="5.44637">
        <ele>201.6</ele>
        <time>2015-02-11T13:49:16Z</time>
      </trkpt>
      <trkpt lat="43.2176" lon="5.44654">
        <ele>209.6</ele>
        <time>2015-02-11T13:49:27Z</time>
      </trkpt>
      <trkpt lat="43.21772" lon="5.44672">
        <ele>218.5</ele>
        <time>2015-02-11T13:49:40Z</time>
      </trkpt>
      <trkpt lat="43.21789" lon="5.44679">
        <ele>215.8</ele>
        <time>2015-02-11T13:49:54Z</time>
      </trkpt>
      <trkpt lat="43.2179" lon="5.4468">
        <ele>215.5</ele>
        <time>2015-02-11T13:49:55Z</time>
      </trkpt>
      <trkpt lat="43.21823" lon="5.44692">
        <ele>213.8</ele>
        <time>2015-02-11T13:50:24Z</time>
      </trkpt>
      <trkpt lat="43.21838" lon="5.44701">
        <ele>214</ele>
        <time>2015-02-11T13:50:37Z</time>
      </trkpt>
      <trkpt lat="43.21856" lon="5.44698">
        <ele>213.6</ele>
        <time>2015-02-11T13:50:52Z</time>
      </trkpt>
      <trkpt lat="43.21873" lon="5.44691">
        <ele>214.3</ele>
        <time>2015-02-11T13:51:06Z</time>
      </trkpt>
      <trkpt lat="43.21874" lon="5.4469">
        <ele>214.1</ele>
        <time>2015-02-11T13:51:07Z</time>
      </trkpt>
      <trkpt lat="43.21885" lon="5.44648">
        <ele>206.6</ele>
        <time>2015-02-11T13:51:38Z</time>
      </trkpt>
      <trkpt lat="43.21892" lon="5.44625">
        <ele>206.6</ele>
        <time>2015-02-11T13:51:52Z</time>
      </trkpt>
      <trkpt lat="43.21904" lon="5.44608">
        <ele>204.6</ele>
        <time>2015-02-11T13:52:08Z</time>
      </trkpt>
      <trkpt lat="43.21904" lon="5.44607">
        <ele>204.6</ele>
        <time>2015-02-11T13:52:09Z</time>
      </trkpt>
      <trkpt lat="43.21922" lon="5.44567">
        <ele>202.3</ele>
        <time>2015-02-11T13:52:37Z</time>
      </trkpt>
      <trkpt lat="43.21925" lon="5.44545">
        <ele>201.8</ele>
        <time>2015-02-11T13:52:50Z</time>
      </trkpt>
      <trkpt lat="43.2193" lon="5.44522">
        <ele>195.3</ele>
        <time>2015-02-11T13:53:04Z</time>
      </trkpt>
      <trkpt lat="43.21921" lon="5.44501">
        <ele>205.6</ele>
        <time>2015-02-11T13:53:15Z</time>
      </trkpt>
      <trkpt lat="43.2192" lon="5.44499">
        <ele>206.3</ele>
        <time>2015-02-11T13:53:16Z</time>
      </trkpt>
      <trkpt lat="43.21923" lon="5.44452">
        <ele>197.1</ele>
        <time>2015-02-11T13:53:47Z</time>
      </trkpt>
      <trkpt lat="43.21932" lon="5.44432">
        <ele>196.3</ele>
        <time>2015-02-11T13:54:00Z</time>
      </trkpt>
      <trkpt lat="43.21943" lon="5.44414">
        <ele>196.1</ele>
        <time>2015-02-11T13:54:17Z</time>
      </trkpt>
      <trkpt lat="43.21946" lon="5.44412">
        <ele>196.6</ele>
        <time>2015-02-11T13:54:18Z</time>
      </trkpt>
      <trkpt lat="43.21965" lon="5.44377">
        <ele>191</ele>
        <time>2015-02-11T13:54:45Z</time>
      </trkpt>
      <trkpt lat="43.21976" lon="5.44357">
        <ele>189.3</ele>
        <time>2015-02-11T13:54:59Z</time>
      </trkpt>
      <trkpt lat="43.21985" lon="5.44338">
        <ele>187.6</ele>
        <time>2015-02-11T13:55:12Z</time>
      </trkpt>
      <trkpt lat="43.21995" lon="5.44317">
        <ele>188.6</ele>
        <time>2015-02-11T13:55:26Z</time>
      </trkpt>
      <trkpt lat="43.21995" lon="5.44316">
        <ele>188.3</ele>
        <time>2015-02-11T13:55:27Z</time>
      </trkpt>
      <trkpt lat="43.22017" lon="5.4428">
        <ele>186.6</ele>
        <time>2015-02-11T13:55:52Z</time>
      </trkpt>
      <trkpt lat="43.22025" lon="5.44259">
        <ele>182.3</ele>
        <time>2015-02-11T13:56:06Z</time>
      </trkpt>
      <trkpt lat="43.22034" lon="5.44237">
        <ele>182.6</ele>
        <time>2015-02-11T13:56:18Z</time>
      </trkpt>
      <trkpt lat="43.22043" lon="5.44217">
        <ele>186</ele>
        <time>2015-02-11T13:56:30Z</time>
      </trkpt>
      <trkpt lat="43.22043" lon="5.44215">
        <ele>186.1</ele>
        <time>2015-02-11T13:56:31Z</time>
      </trkpt>
      <trkpt lat="43.22054" lon="5.44174">
        <ele>187</ele>
        <time>2015-02-11T13:56:56Z</time>
      </trkpt>
      <trkpt lat="43.2206" lon="5.44151">
        <ele>182.1</ele>
        <time>2015-02-11T13:57:10Z</time>
      </trkpt>
      <trkpt lat="43.22067" lon="5.4413">
        <ele>181.3</ele>
        <time>2015-02-11T13:57:23Z</time>
      </trkpt>
      <trkpt lat="43.22077" lon="5.4411">
        <ele>180.1</ele>
        <time>2015-02-11T13:57:37Z</time>
      </trkpt>
      <trkpt lat="43.22078" lon="5.44109">
        <ele>180.3</ele>
        <time>2015-02-11T13:57:38Z</time>
      </trkpt>
      <trkpt lat="43.22104" lon="5.44079">
        <ele>176.6</ele>
        <time>2015-02-11T13:58:04Z</time>
      </trkpt>
      <trkpt lat="43.22118" lon="5.44068">
        <ele>175.3</ele>
        <time>2015-02-11T13:58:15Z</time>
      </trkpt>
      <trkpt lat="43.22132" lon="5.44053">
        <ele>173.5</ele>
        <time>2015-02-11T13:58:33Z</time>
      </trkpt>
      <trkpt lat="43.22145" lon="5.44037">
        <ele>172.1</ele>
        <time>2015-02-11T13:58:51Z</time>
      </trkpt>
      <trkpt lat="43.22146" lon="5.44037">
        <ele>172.1</ele>
        <time>2015-02-11T13:58:52Z</time>
      </trkpt>
      <trkpt lat="43.22177" lon="5.44019">
        <ele>163</ele>
        <time>2015-02-11T13:59:19Z</time>
      </trkpt>
      <trkpt lat="43.22194" lon="5.44011">
        <ele>158.6</ele>
        <time>2015-02-11T13:59:33Z</time>
      </trkpt>
      <trkpt lat="43.2221" lon="5.44004">
        <ele>161.3</ele>
        <time>2015-02-11T13:59:44Z</time>
      </trkpt>
      <trkpt lat="43.22227" lon="5.43997">
        <ele>153.3</ele>
        <time>2015-02-11T14:00:02Z</time>
      </trkpt>
      <trkpt lat="43.22228" lon="5.43997">
        <ele>153.1</ele>
        <time>2015-02-11T14:00:03Z</time>
      </trkpt>
      <trkpt lat="43.22258" lon="5.43975">
        <ele>144.6</ele>
        <time>2015-02-11T14:00:39Z</time>
      </trkpt>
      <trkpt lat="43.22272" lon="5.43962">
        <ele>143.8</ele>
        <time>2015-02-11T14:00:54Z</time>
      </trkpt>
      <trkpt lat="43.22286" lon="5.43947">
        <ele>140.3</ele>
        <time>2015-02-11T14:01:08Z</time>
      </trkpt>
      <trkpt lat="43.22287" lon="5.43946">
        <ele>139.8</ele>
        <time>2015-02-11T14:01:09Z</time>
      </trkpt>
      <trkpt lat="43.22311" lon="5.43916">
        <ele>140.5</ele>
        <time>2015-02-11T14:01:32Z</time>
      </trkpt>
      <trkpt lat="43.22323" lon="5.43901">
        <ele>140.1</ele>
        <time>2015-02-11T14:01:43Z</time>
      </trkpt>
      <trkpt lat="43.22336" lon="5.43888">
        <ele>140.6</ele>
        <time>2015-02-11T14:01:54Z</time>
      </trkpt>
      <trkpt lat="43.22351" lon="5.43878">
        <ele>143.8</ele>
        <time>2015-02-11T14:02:04Z</time>
      </trkpt>
      <trkpt lat="43.22367" lon="5.43868">
        <ele>145.6</ele>
        <time>2015-02-11T14:02:18Z</time>
      </trkpt>
      <trkpt lat="43.22369" lon="5.43867">
        <ele>145.3</ele>
        <time>2015-02-11T14:02:19Z</time>
      </trkpt>
      <trkpt lat="43.22399" lon="5.43853">
        <ele>144.8</ele>
        <time>2015-02-11T14:02:42Z</time>
      </trkpt>
      <trkpt lat="43.22415" lon="5.43843">
        <ele>147.8</ele>
        <time>2015-02-11T14:02:51Z</time>
      </trkpt>
      <trkpt lat="43.22429" lon="5.4383">
        <ele>150.1</ele>
        <time>2015-02-11T14:03:02Z</time>
      </trkpt>
      <trkpt lat="43.22444" lon="5.43823">
        <ele>151.6</ele>
        <time>2015-02-11T14:03:17Z</time>
      </trkpt>
      <trkpt lat="43.22461" lon="5.43822">
        <ele>153.6</ele>
        <time>2015-02-11T14:03:29Z</time>
      </trkpt>
      <trkpt lat="43.22463" lon="5.43822">
        <ele>153.6</ele>
        <time>2015-02-11T14:03:30Z</time>
      </trkpt>
      <trkpt lat="43.22496" lon="5.43819">
        <ele>148.5</ele>
        <time>2015-02-11T14:03:52Z</time>
      </trkpt>
      <trkpt lat="43.22512" lon="5.43818">
        <ele>150.8</ele>
        <time>2015-02-11T14:04:02Z</time>
      </trkpt>
      <trkpt lat="43.22528" lon="5.43816">
        <ele>152.8</ele>
        <time>2015-02-11T14:04:13Z</time>
      </trkpt>
      <trkpt lat="43.22545" lon="5.43813">
        <ele>154.3</ele>
        <time>2015-02-11T14:04:23Z</time>
      </trkpt>
      <trkpt lat="43.22563" lon="5.43812">
        <ele>153.8</ele>
        <time>2015-02-11T14:04:39Z</time>
      </trkpt>
      <trkpt lat="43.22565" lon="5.43811">
        <ele>153.8</ele>
        <time>2015-02-11T14:04:40Z</time>
      </trkpt>
      <trkpt lat="43.22597" lon="5.43808">
        <ele>154</ele>
        <time>2015-02-11T14:05:06Z</time>
      </trkpt>
      <trkpt lat="43.22613" lon="5.43803">
        <ele>154.1</ele>
        <time>2015-02-11T14:05:16Z</time>
      </trkpt>
      <trkpt lat="43.2263" lon="5.43797">
        <ele>156.6</ele>
        <time>2015-02-11T14:05:28Z</time>
      </trkpt>
      <trkpt lat="43.22647" lon="5.43789">
        <ele>160.5</ele>
        <time>2015-02-11T14:05:40Z</time>
      </trkpt>
      <trkpt lat="43.22648" lon="5.43788">
        <ele>160.6</ele>
        <time>2015-02-11T14:05:41Z</time>
      </trkpt>
      <trkpt lat="43.22677" lon="5.43767">
        <ele>162.8</ele>
        <time>2015-02-11T14:06:06Z</time>
      </trkpt>
      <trkpt lat="43.22692" lon="5.43756">
        <ele>162.3</ele>
        <time>2015-02-11T14:06:20Z</time>
      </trkpt>
      <trkpt lat="43.22708" lon="5.43744">
        <ele>160.1</ele>
        <time>2015-02-11T14:06:34Z</time>
      </trkpt>
      <trkpt lat="43.22723" lon="5.43736">
        <ele>158.6</ele>
        <time>2015-02-11T14:06:47Z</time>
      </trkpt>
      <trkpt lat="43.22725" lon="5.43736">
        <ele>158.8</ele>
        <time>2015-02-11T14:06:48Z</time>
      </trkpt>
      <trkpt lat="43.22757" lon="5.43727">
        <ele>159.3</ele>
        <time>2015-02-11T14:07:10Z</time>
      </trkpt>
      <trkpt lat="43.22774" lon="5.43724">
        <ele>159.8</ele>
        <time>2015-02-11T14:07:23Z</time>
      </trkpt>
      <trkpt lat="43.22791" lon="5.43727">
        <ele>158.5</ele>
        <time>2015-02-11T14:07:36Z</time>
      </trkpt>
      <trkpt lat="43.22809" lon="5.43729">
        <ele>158.1</ele>
        <time>2015-02-11T14:07:49Z</time>
      </trkpt>
      <trkpt lat="43.2281" lon="5.43728">
        <ele>157.8</ele>
        <time>2015-02-11T14:07:50Z</time>
      </trkpt>
      <trkpt lat="43.22844" lon="5.43723">
        <ele>155</ele>
        <time>2015-02-11T14:08:17Z</time>
      </trkpt>
      <trkpt lat="43.22861" lon="5.43723">
        <ele>155</ele>
        <time>2015-02-11T14:08:31Z</time>
      </trkpt>
      <trkpt lat="43.22879" lon="5.43721">
        <ele>153.3</ele>
        <time>2015-02-11T14:08:45Z</time>
      </trkpt>
      <trkpt lat="43.22897" lon="5.4372">
        <ele>152.8</ele>
        <time>2015-02-11T14:09:00Z</time>
      </trkpt>
      <trkpt lat="43.22897" lon="5.4372">
        <ele>152.3</ele>
        <time>2015-02-11T14:09:01Z</time>
      </trkpt>
      <trkpt lat="43.2293" lon="5.43712">
        <ele>143.3</ele>
        <time>2015-02-11T14:09:31Z</time>
      </trkpt>
      <trkpt lat="43.22946" lon="5.43709">
        <ele>139.6</ele>
        <time>2015-02-11T14:09:44Z</time>
      </trkpt>
      <trkpt lat="43.22964" lon="5.43711">
        <ele>139.3</ele>
        <time>2015-02-11T14:09:57Z</time>
      </trkpt>
      <trkpt lat="43.2298" lon="5.43703">
        <ele>139.8</ele>
        <time>2015-02-11T14:10:17Z</time>
      </trkpt>
      <trkpt lat="43.22981" lon="5.43703">
        <ele>139.8</ele>
        <time>2015-02-11T14:10:18Z</time>
      </trkpt>
    </trkseg>
  </trk>
</gpx>